Cottrellville Township, Michigan
Current Conditions -  °F | °C
As of 7:57 AM on Saturday 20 Dec 2014 (Local Time) from KPHN Reporting Station
Overcast Overcast  
Wind Chill: 21°   Ceiling: 2800
Heat Index: 21°   Visibility: 10mi
Dew Point: 21°   Wind: 0mph
Humidity: 100%   Direction: NA
Pressure: 30.31"   Gusts: NA
Location:  42.6968°N, 82.5536°W
Report Text: KPHN 201257Z AUTO 00000KT 10SM OVC028 M06/M06 A3031 RMK AO2
Loading
Personal Weather Stations






























Interactive Weather Map New forecast layout! Learn more

10-Day Weather Forecast

Advertisements
Track Severe Weather on mobile